sensor_id;sensor_type;location;lat;lon;timestamp;pressure;altitude;pressure_sealevel;temperature;humidity
21781;BME280;52576;53.614;9.894;2023-10-09T00:00:55;101894.66;;;10.35;92.67
21781;BME280;52576;53.614;9.894;2023-10-09T00:03:03;101866.75;;;10.34;92.74
21781;BME280;52576;53.614;9.894;2023-10-09T00:05:06;101862.34;;;10.34;92.99
21781;BME280;52576;53.614;9.894;2023-10-09T00:07:13;101839.78;;;10.32;92.86
21781;BME280;52576;53.614;9.894;2023-10-09T00:09:19;101821.44;;;10.32;93.23
21781;BME280;52576;53.614;9.894;2023-10-09T00:11:32;101813.50;;;10.33;93.50
21781;BME280;52576;53.614;9.894;2023-10-09T00:13:44;101818.59;;;10.36;93.59
21781;BME280;52576;53.614;9.894;2023-10-09T00:16:05;101813.19;;;10.39;93.71
21781;BME280;52576;53.614;9.894;2023-10-09T00:18:15;101805.34;;;10.39;93.56
21781;BME280;52576;53.614;9.894;2023-10-09T00:20:23;101799.31;;;10.37;93.38
21781;BME280;52576;53.614;9.894;2023-10-09T00:22:39;101784.59;;;10.35;93.39
21781;BME280;52576;53.614;9.894;2023-10-09T00:24:48;101792.53;;;10.33;93.64
21781;BME280;52576;53.614;9.894;2023-10-09T00:26:54;101800.53;;;10.30;93.76
21781;BME280;52576;53.614;9.894;2023-10-09T00:29:10;101797.91;;;10.30;94.06
21781;BME280;52576;53.614;9.894;2023-10-09T00:31:18;101775.25;;;10.29;94.26
21781;BME280;52576;53.614;9.894;2023-10-09T00:33:32;101774.41;;;10.29;94.41
21781;BME280;52576;53.614;9.894;2023-10-09T00:35:36;101790.97;;;10.29;94.26
21781;BME280;52576;53.614;9.894;2023-10-09T00:37:48;101779.66;;;10.29;94.47
21781;BME280;52576;53.614;9.894;2023-10-09T00:39:53;101768.16;;;10.31;94.71
21781;BME280;52576;53.614;9.894;2023-10-09T00:41:58;101769.00;;;10.32;94.73
21781;BME280;52576;53.614;9.894;2023-10-09T00:44:02;101762.84;;;10.33;94.74
21781;BME280;52576;53.614;9.894;2023-10-09T00:46:09;101761.84;;;10.35;94.86
21781;BME280;52576;53.614;9.894;2023-10-09T00:48:27;101755.69;;;10.36;95.00
21781;BME280;52576;53.614;9.894;2023-10-09T00:50:38;101744.22;;;10.39;95.13
21781;BME280;52576;53.614;9.894;2023-10-09T00:52:52;101740.63;;;10.40;95.25
21781;BME280;52576;53.614;9.894;2023-10-09T00:55:04;101736.25;;;10.40;95.01
21781;BME280;52576;53.614;9.894;2023-10-09T00:57:15;101729.34;;;10.39;94.78
21781;BME280;52576;53.614;9.894;2023-10-09T00:59:19;101721.53;;;10.38;94.92
21781;BME280;52576;53.614;9.894;2023-10-09T01:01:27;101719.00;;;10.36;94.92
21781;BME280;52576;53.614;9.894;2023-10-09T01:03:37;101719.06;;;10.35;95.05
21781;BME280;52576;53.614;9.894;2023-10-09T01:05:42;101713.91;;;10.33;95.12
21781;BME280;52576;53.614;9.894;2023-10-09T01:07:53;101716.53;;;10.33;95.20
21781;BME280;52576;53.614;9.894;2023-10-09T01:10:00;101719.16;;;10.33;95.45
21781;BME280;52576;53.614;9.894;2023-10-09T01:12:12;101715.59;;;10.34;95.33
21781;BME280;52576;53.614;9.894;2023-10-09T01:14:20;101712.06;;;10.35;95.46
21781;BME280;52576;53.614;9.894;2023-10-09T01:16:24;101699.88;;;10.34;95.23
21781;BME280;52576;53.614;9.894;2023-10-09T01:18:27;101692.94;;;10.33;95.30
21781;BME280;52576;53.614;9.894;2023-10-09T01:20:39;101687.72;;;10.33;95.38
21781;BME280;52576;53.614;9.894;2023-10-09T01:22:46;101693.72;;;10.35;95.28
21781;BME280;52576;53.614;9.894;2023-10-09T01:24:53;101687.56;;;10.36;95.34
21781;BME280;52576;53.614;9.894;2023-10-09T01:26:57;101682.31;;;10.36;95.26
21781;BME280;52576;53.614;9.894;2023-10-09T01:29:01;101680.47;;;10.38;95.35
21781;BME280;52576;53.614;9.894;2023-10-09T01:31:09;101681.38;;;10.37;95.46
21781;BME280;52576;53.614;9.894;2023-10-09T01:33:12;101666.59;;;10.36;95.07
21781;BME280;52576;53.614;9.894;2023-10-09T01:35:24;101666.75;;;10.33;94.97
21781;BME280;52576;53.614;9.894;2023-10-09T01:37:29;101672.13;;;10.30;95.04
21781;BME280;52576;53.614;9.894;2023-10-09T01:39:32;101665.19;;;10.29;95.23
21781;BME280;52576;53.614;9.894;2023-10-09T01:41:43;101659.13;;;10.29;95.07
21781;BME280;52576;53.614;9.894;2023-10-09T01:46:14;101656.72;;;10.24;95.10
21781;BME280;52576;53.614;9.894;2023-10-09T01:48:21;101652.41;;;10.23;95.36
21781;BME280;52576;53.614;9.894;2023-10-09T01:50:26;101628.81;;;10.23;95.41
21781;BME280;52576;53.614;9.894;2023-10-09T01:52:33;101645.41;;;10.24;95.47
21781;BME280;52576;53.614;9.894;2023-10-09T01:54:39;101664.66;;;10.23;95.45
21781;BME280;52576;53.614;9.894;2023-10-09T01:56:44;101655.19;;;10.20;95.28
21781;BME280;52576;53.614;9.894;2023-10-09T01:58:48;101650.91;;;10.17;95.29
21781;BME280;52576;53.614;9.894;2023-10-09T02:00:52;101640.38;;;10.19;95.46
21781;BME280;52576;53.614;9.894;2023-10-09T02:02:58;101622.03;;;10.19;95.66
21781;BME280;52576;53.614;9.894;2023-10-09T02:05:06;101616.81;;;10.19;95.78
21781;BME280;52576;53.614;9.894;2023-10-09T02:07:12;101614.22;;;10.17;95.61
21781;BME280;52576;53.614;9.894;2023-10-09T02:09:16;101615.25;;;10.15;95.53
21781;BME280;52576;53.614;9.894;2023-10-09T02:11:24;101607.66;;;10.10;95.45
21781;BME280;52576;53.614;9.894;2023-10-09T02:13:39;101612.19;;;10.07;95.45
21781;BME280;52576;53.614;9.894;2023-10-09T02:15:44;101608.78;;;10.05;95.55
21781;BME280;52576;53.614;9.894;2023-10-09T02:18:04;101623.75;;;10.03;95.60
21781;BME280;52576;53.614;9.894;2023-10-09T02:20:18;101622.97;;;10.01;95.31
21781;BME280;52576;53.614;9.894;2023-10-09T02:22:30;101608.19;;;10.00;95.68
21781;BME280;52576;53.614;9.894;2023-10-09T02:24:36;101605.72;;;9.97;95.61
21781;BME280;52576;53.614;9.894;2023-10-09T02:26:52;101627.66;;;9.94;95.58
21781;BME280;52576;53.614;9.894;2023-10-09T02:29:11;101631.28;;;9.92;95.52
21781;BME280;52576;53.614;9.894;2023-10-09T02:31:20;101625.34;;;9.88;95.44
21781;BME280;52576;53.614;9.894;2023-10-09T02:33:28;101642.94;;;9.86;95.73
21781;BME280;52576;53.614;9.894;2023-10-09T02:35:33;101654.34;;;9.85;95.64
21781;BME280;52576;53.614;9.894;2023-10-09T02:37:44;101624.75;;;9.83;95.77
21781;BME280;52576;53.614;9.894;2023-10-09T02:39:49;101598.50;;;9.84;96.12
21781;BME280;52576;53.614;9.894;2023-10-09T02:41:55;101597.56;;;9.85;96.11
21781;BME280;52576;53.614;9.894;2023-10-09T02:44:03;101586.06;;;9.88;96.38
21781;BME280;52576;53.614;9.894;2023-10-09T02:46:16;101582.38;;;9.92;96.30
21781;BME280;52576;53.614;9.894;2023-10-09T02:48:21;101570.06;;;9.94;96.13
21781;BME280;52576;53.614;9.894;2023-10-09T02:50:28;101577.84;;;9.96;96.21
21781;BME280;52576;53.614;9.894;2023-10-09T02:52:36;101588.31;;;9.96;95.96
21781;BME280;52576;53.614;9.894;2023-10-09T02:54:43;101576.97;;;9.95;95.94
21781;BME280;52576;53.614;9.894;2023-10-09T02:56:49;101588.31;;;9.96;95.95
21781;BME280;52576;53.614;9.894;2023-10-09T02:58:58;101576.13;;;9.95;95.64
21781;BME280;52576;53.614;9.894;2023-10-09T03:01:10;101572.75;;;9.93;95.62
21781;BME280;52576;53.614;9.894;2023-10-09T03:03:16;101576.28;;;9.92;95.67
21781;BME280;52576;53.614;9.894;2023-10-09T03:05:21;101572.06;;;9.89;95.55
21781;BME280;52576;53.614;9.894;2023-10-09T03:07:25;101569.50;;;9.87;95.50
21781;BME280;52576;53.614;9.894;2023-10-09T03:09:28;101569.50;;;9.87;95.52
21781;BME280;52576;53.614;9.894;2023-10-09T03:11:31;101564.38;;;9.86;95.38
21781;BME280;52576;53.614;9.894;2023-10-09T03:13:35;101567.00;;;9.86;95.40
21781;BME280;52576;53.614;9.894;2023-10-09T03:15:38;101552.22;;;9.85;95.50
21781;BME280;52576;53.614;9.894;2023-10-09T03:17:42;101538.28;;;9.84;95.53
21781;BME280;52576;53.614;9.894;2023-10-09T03:19:47;101544.44;;;9.83;95.56
21781;BME280;52576;53.614;9.894;2023-10-09T03:21:50;101534.88;;;9.82;95.57
21781;BME280;52576;53.614;9.894;2023-10-09T03:23:53;101520.88;;;9.83;95.70
21781;BME280;52576;53.614;9.894;2023-10-09T03:25:58;101501.63;;;9.84;95.94
21781;BME280;52576;53.614;9.894;2023-10-09T03:28:21;101513.94;;;9.82;95.59
21781;BME280;52576;53.614;9.894;2023-10-09T03:30:24;101526.19;;;9.82;95.66
21781;BME280;52576;53.614;9.894;2023-10-09T03:32:27;101519.19;;;9.82;95.65
21781;BME280;52576;53.614;9.894;2023-10-09T03:34:30;101516.56;;;9.82;95.68
21781;BME280;52576;53.614;9.894;2023-10-09T03:36:35;101515.63;;;9.83;95.50
21781;BME280;52576;53.614;9.894;2023-10-09T03:38:40;101525.25;;;9.83;95.47
21781;BME280;52576;53.614;9.894;2023-10-09T03:40:44;101527.97;;;9.81;95.34
21781;BME280;52576;53.614;9.894;2023-10-09T03:42:50;101518.41;;;9.80;95.50
21781;BME280;52576;53.614;9.894;2023-10-09T03:44:53;101514.78;;;9.83;95.67
21781;BME280;52576;53.614;9.894;2023-10-09T03:46:59;101502.53;;;9.83;95.63
21781;BME280;52576;53.614;9.894;2023-10-09T03:49:03;101505.09;;;9.85;95.71
21781;BME280;52576;53.614;9.894;2023-10-09T03:51:12;101514.72;;;9.84;95.52
21781;BME280;52576;53.614;9.894;2023-10-09T03:53:24;101511.25;;;9.84;95.41
21781;BME280;52576;53.614;9.894;2023-10-09T03:55:27;101513.94;;;9.82;95.19
21781;BME280;52576;53.614;9.894;2023-10-09T03:57:31;101501.78;;;9.81;95.29
21781;BME280;52576;53.614;9.894;2023-10-09T03:59:34;101507.00;;;9.81;95.05
21781;BME280;52576;53.614;9.894;2023-10-09T04:01:39;101512.25;;;9.81;95.05
21781;BME280;52576;53.614;9.894;2023-10-09T04:03:43;101507.09;;;9.80;95.13
21781;BME280;52576;53.614;9.894;2023-10-09T04:05:46;101515.78;;;9.80;95.11
21781;BME280;52576;53.614;9.894;2023-10-09T04:07:54;101491.47;;;9.78;94.87
21781;BME280;52576;53.614;9.894;2023-10-09T04:10:01;101492.31;;;9.79;94.94
21781;BME280;52576;53.614;9.894;2023-10-09T04:12:25;101494.00;;;9.80;95.07
21781;BME280;52576;53.614;9.894;2023-10-09T04:14:33;101493.16;;;9.79;94.88
21781;BME280;52576;53.614;9.894;2023-10-09T04:16:36;101499.25;;;9.80;94.97
21781;BME280;52576;53.614;9.894;2023-10-09T04:18:53;101491.31;;;9.81;94.97
21781;BME280;52576;53.614;9.894;2023-10-09T04:20:58;101489.44;;;9.83;95.10
21781;BME280;52576;53.614;9.894;2023-10-09T04:23:21;101491.16;;;9.84;94.90
21781;BME280;52576;53.614;9.894;2023-10-09T04:25:38;101492.00;;;9.85;94.81
21781;BME280;52576;53.614;9.894;2023-10-09T04:27:44;101491.16;;;9.84;94.63
21781;BME280;52576;53.614;9.894;2023-10-09T04:29:48;101484.22;;;9.83;94.59
21781;BME280;52576;53.614;9.894;2023-10-09T04:31:51;101473.75;;;9.83;94.65
21781;BME280;52576;53.614;9.894;2023-10-09T04:33:56;101478.97;;;9.83;94.65
21781;BME280;52576;53.614;9.894;2023-10-09T04:36:24;101478.97;;;9.83;94.22
21781;BME280;52576;53.614;9.894;2023-10-09T04:38:30;101478.13;;;9.83;94.26
21781;BME280;52576;53.614;9.894;2023-10-09T04:40:37;101480.81;;;9.81;94.01
21781;BME280;52576;53.614;9.894;2023-10-09T04:43:01;101489.59;;;9.80;93.75
21781;BME280;52576;53.614;9.894;2023-10-09T04:45:08;101486.22;;;9.78;93.81
21781;BME280;52576;53.614;9.894;2023-10-09T04:47:43;101487.16;;;9.77;93.90
21781;BME280;52576;53.614;9.894;2023-10-09T04:50:00;101488.06;;;9.76;93.70
21781;BME280;52576;53.614;9.894;2023-10-09T04:52:05;101490.69;;;9.76;93.70
21781;BME280;52576;53.614;9.894;2023-10-09T04:54:09;101493.31;;;9.76;93.70
21781;BME280;52576;53.614;9.894;2023-10-09T04:56:36;101491.63;;;9.75;93.65
21781;BME280;52576;53.614;9.894;2023-10-09T04:58:53;101496.00;;;9.75;93.75
21781;BME280;52576;53.614;9.894;2023-10-09T05:01:05;101489.91;;;9.74;93.74
21781;BME280;52576;53.614;9.894;2023-10-09T05:03:16;101487.31;;;9.74;93.66
21781;BME280;52576;53.614;9.894;2023-10-09T05:05:28;101477.59;;;9.76;93.75
21781;BME280;52576;53.614;9.894;2023-10-09T05:07:47;101465.44;;;9.75;93.61
21781;BME280;52576;53.614;9.894;2023-10-09T05:09:56;101458.50;;;9.74;93.72
21781;BME280;52576;53.614;9.894;2023-10-09T05:12:11;101448.03;;;9.74;93.29
21781;BME280;52576;53.614;9.894;2023-10-09T05:14:17;101448.03;;;9.74;93.29
21781;BME280;52576;53.614;9.894;2023-10-09T05:16:28;101451.41;;;9.76;93.09
21781;BME280;52576;53.614;9.894;2023-10-09T05:18:31;101447.88;;;9.77;93.35
21781;BME280;52576;53.614;9.894;2023-10-09T05:20:38;101444.34;;;9.78;93.15
21781;BME280;52576;53.614;9.894;2023-10-09T05:23:19;101445.94;;;9.81;92.79
21781;BME280;52576;53.614;9.894;2023-10-09T05:25:28;101438.09;;;9.81;92.70
21781;BME280;52576;53.614;9.894;2023-10-09T05:27:58;101440.63;;;9.82;92.38
21781;BME280;52576;53.614;9.894;2023-10-09T05:30:21;101424.91;;;9.82;92.50
21781;BME280;52576;53.614;9.894;2023-10-09T05:32:27;101427.53;;;9.82;92.25
21781;BME280;52576;53.614;9.894;2023-10-09T05:34:37;101423.06;;;9.84;92.42
21781;BME280;52576;53.614;9.894;2023-10-09T05:37:00;101415.13;;;9.86;92.41
21781;BME280;52576;53.614;9.894;2023-10-09T05:39:18;101422.88;;;9.87;92.31
21781;BME280;52576;53.614;9.894;2023-10-09T05:41:24;101437.66;;;9.88;92.05
21781;BME280;52576;53.614;9.894;2023-10-09T05:43:46;101453.50;;;9.87;91.85
21781;BME280;52576;53.614;9.894;2023-10-09T05:46:09;101445.72;;;9.85;91.97
21781;BME280;52576;53.614;9.894;2023-10-09T05:48:17;101441.41;;;9.84;92.00
21781;BME280;52576;53.614;9.894;2023-10-09T05:50:39;101444.94;;;9.83;92.10
21781;BME280;52576;53.614;9.894;2023-10-09T05:53:02;101438.84;;;9.83;92.22
21781;BME280;52576;53.614;9.894;2023-10-09T05:55:11;101435.41;;;9.82;92.22
21781;BME280;52576;53.614;9.894;2023-10-09T05:57:51;101436.41;;;9.80;92.02
21781;BME280;52576;53.614;9.894;2023-10-09T06:00:21;101433.88;;;9.78;92.21
21781;BME280;52576;53.614;9.894;2023-10-09T06:02:42;101435.72;;;9.76;92.68
21781;BME280;52576;53.614;9.894;2023-10-09T06:05:04;101458.44;;;9.76;92.47
21781;BME280;52576;53.614;9.894;2023-10-09T06:07:28;101469.91;;;9.73;92.60
21781;BME280;52576;53.614;9.894;2023-10-09T06:09:51;101465.59;;;9.72;92.60
21781;BME280;52576;53.614;9.894;2023-10-09T06:11:58;101451.72;;;9.70;92.65
21781;BME280;52576;53.614;9.894;2023-10-09T06:14:19;101441.41;;;9.67;92.73
21781;BME280;52576;53.614;9.894;2023-10-09T06:16:49;101434.50;;;9.66;92.84
21781;BME280;52576;53.614;9.894;2023-10-09T06:19:01;101442.44;;;9.65;93.05
21781;BME280;52576;53.614;9.894;2023-10-09T06:21:15;101445.88;;;9.65;93.06
21781;BME280;52576;53.614;9.894;2023-10-09T06:23:41;101440.72;;;9.64;93.01
21781;BME280;52576;53.614;9.894;2023-10-09T06:26:10;101431.09;;;9.64;93.33
21781;BME280;52576;53.614;9.894;2023-10-09T06:28:26;101424.09;;;9.65;93.38
21781;BME280;52576;53.614;9.894;2023-10-09T06:30:35;101418.78;;;9.66;93.58
21781;BME280;52576;53.614;9.894;2023-10-09T06:32:47;101416.16;;;9.66;93.57
21781;BME280;52576;53.614;9.894;2023-10-09T06:35:00;101408.31;;;9.66;93.61
21781;BME280;52576;53.614;9.894;2023-10-09T06:37:17;101406.63;;;9.65;93.47
21781;BME280;52576;53.614;9.894;2023-10-09T06:39:36;101411.88;;;9.65;93.68
21781;BME280;52576;53.614;9.894;2023-10-09T06:42:08;101410.16;;;9.64;93.79
21781;BME280;52576;53.614;9.894;2023-10-09T06:44:12;101403.25;;;9.63;93.83
21781;BME280;52576;53.614;9.894;2023-10-09T06:46:35;101409.41;;;9.62;94.06
21781;BME280;52576;53.614;9.894;2023-10-09T06:48:48;101409.41;;;9.62;94.06
21781;BME280;52576;53.614;9.894;2023-10-09T06:51:02;101404.16;;;9.62;94.12
21781;BME280;52576;53.614;9.894;2023-10-09T06:53:09;101405.13;;;9.61;94.22
21781;BME280;52576;53.614;9.894;2023-10-09T06:55:28;101412.03;;;9.62;94.19
21781;BME280;52576;53.614;9.894;2023-10-09T06:57:35;101406.78;;;9.62;94.23
21781;BME280;52576;53.614;9.894;2023-10-09T06:59:50;101409.41;;;9.62;94.26
21781;BME280;52576;53.614;9.894;2023-10-09T07:02:11;101411.16;;;9.62;94.59
21781;BME280;52576;53.614;9.894;2023-10-09T07:04:28;101403.25;;;9.63;94.67
21781;BME280;52576;53.614;9.894;2023-10-09T07:06:46;101417.09;;;9.65;94.92
21781;BME280;52576;53.614;9.894;2023-10-09T07:08:53;101420.47;;;9.67;94.80
21781;BME280;52576;53.614;9.894;2023-10-09T07:11:17;101405.63;;;9.68;94.56
21781;BME280;52576;53.614;9.894;2023-10-09T07:13:40;101413.41;;;9.69;94.81
21781;BME280;52576;53.614;9.894;2023-10-09T07:15:43;101409.84;;;9.70;94.88
21781;BME280;52576;53.614;9.894;2023-10-09T07:18:04;101408.84;;;9.73;94.92
21781;BME280;52576;53.614;9.894;2023-10-09T07:20:22;101399.31;;;9.72;94.70
21781;BME280;52576;53.614;9.894;2023-10-09T07:22:42;101394.84;;;9.74;95.04
21781;BME280;52576;53.614;9.894;2023-10-09T07:25:06;101399.91;;;9.77;95.13
21781;BME280;52576;53.614;9.894;2023-10-09T07:27:16;101409.38;;;9.79;95.25
21781;BME280;52576;53.614;9.894;2023-10-09T07:29:19;101413.59;;;9.82;95.08
21781;BME280;52576;53.614;9.894;2023-10-09T07:31:24;101403.97;;;9.82;95.02
21781;BME280;52576;53.614;9.894;2023-10-09T07:33:29;101401.28;;;9.84;95.07
21781;BME280;52576;53.614;9.894;2023-10-09T07:35:55;101404.66;;;9.86;95.06
21781;BME280;52576;53.614;9.894;2023-10-09T07:37:59;101397.53;;;9.88;94.96
21781;BME280;52576;53.614;9.894;2023-10-09T07:40:05;101394.84;;;9.90;95.01
21781;BME280;52576;53.614;9.894;2023-10-09T07:42:09;101403.47;;;9.92;95.11
21781;BME280;52576;53.614;9.894;2023-10-09T07:44:29;101388.50;;;9.94;95.12
21781;BME280;52576;53.614;9.894;2023-10-09T07:46:39;101388.44;;;9.95;95.03
21781;BME280;52576;53.614;9.894;2023-10-09T07:48:55;101387.44;;;9.98;94.93
21781;BME280;52576;53.614;9.894;2023-10-09T07:50:58;101396.97;;;9.99;94.96
21781;BME280;52576;53.614;9.894;2023-10-09T07:53:06;101396.03;;;10.00;94.98
21781;BME280;52576;53.614;9.894;2023-10-09T07:55:20;101397.75;;;10.01;94.99
21781;BME280;52576;53.614;9.894;2023-10-09T07:57:31;101395.88;;;10.03;95.04
21781;BME280;52576;53.614;9.894;2023-10-09T07:59:41;101383.56;;;10.05;95.24
21781;BME280;52576;53.614;9.894;2023-10-09T08:01:56;101376.28;;;10.10;95.29
21781;BME280;52576;53.614;9.894;2023-10-09T08:04:04;101376.13;;;10.13;95.52
21781;BME280;52576;53.614;9.894;2023-10-09T08:06:14;101367.16;;;10.17;95.42
21781;BME280;52576;53.614;9.894;2023-10-09T08:09:08;101378.16;;;10.24;95.38
21781;BME280;52576;53.614;9.894;2023-10-09T08:11:41;101375.13;;;10.31;95.58
21781;BME280;52576;53.614;9.894;2023-10-09T08:14:01;101382.81;;;10.34;95.26
21781;BME280;52576;53.614;9.894;2023-10-09T08:16:04;101382.72;;;10.36;95.43
21781;BME280;52576;53.614;9.894;2023-10-09T08:18:19;101382.72;;;10.36;95.50
21781;BME280;52576;53.614;9.894;2023-10-09T08:20:30;101390.50;;;10.37;95.57
21781;BME280;52576;53.614;9.894;2023-10-09T08:22:55;101390.50;;;10.37;95.33
21781;BME280;52576;53.614;9.894;2023-10-09T08:24:58;101398.28;;;10.39;95.42
21781;BME280;52576;53.614;9.894;2023-10-09T08:27:01;101397.25;;;10.41;95.68
21781;BME280;52576;53.614;9.894;2023-10-09T08:29:18;101394.63;;;10.41;95.65
21781;BME280;52576;53.614;9.894;2023-10-09T08:31:22;101388.44;;;10.42;95.62
21781;BME280;52576;53.614;9.894;2023-10-09T08:33:36;101388.44;;;10.42;95.60
21781;BME280;52576;53.614;9.894;2023-10-09T08:35:45;101391.00;;;10.44;95.55
21781;BME280;52576;53.614;9.894;2023-10-09T08:37:50;101387.44;;;10.45;95.40
21781;BME280;52576;53.614;9.894;2023-10-09T08:39:56;101390.91;;;10.45;95.25
21781;BME280;52576;53.614;9.894;2023-10-09T08:41:59;101402.31;;;10.44;95.11
21781;BME280;52576;53.614;9.894;2023-10-09T08:44:06;101389.22;;;10.44;95.22
21781;BME280;52576;53.614;9.894;2023-10-09T08:46:09;101389.22;;;10.44;95.37
21781;BME280;52576;53.614;9.894;2023-10-09T08:48:15;101384.91;;;10.43;95.34
21781;BME280;52576;53.614;9.894;2023-10-09T08:50:18;101389.22;;;10.44;95.37
21781;BME280;52576;53.614;9.894;2023-10-09T08:52:21;101382.13;;;10.46;95.71
21781;BME280;52576;53.614;9.894;2023-10-09T08:54:26;101375.94;;;10.47;95.63
21781;BME280;52576;53.614;9.894;2023-10-09T08:56:36;101384.56;;;10.49;95.65
21781;BME280;52576;53.614;9.894;2023-10-09T08:58:41;101379.16;;;10.52;95.70
21781;BME280;52576;53.614;9.894;2023-10-09T09:00:44;101380.00;;;10.53;95.64
21781;BME280;52576;53.614;9.894;2023-10-09T09:02:48;101381.69;;;10.54;95.58
21781;BME280;52576;53.614;9.894;2023-10-09T09:04:51;101377.28;;;10.54;95.80
21781;BME280;52576;53.614;9.894;2023-10-09T09:06:55;101383.22;;;10.58;96.03
21781;BME280;52576;53.614;9.894;2023-10-09T09:09:09;101381.25;;;10.62;96.11
21781;BME280;52576;53.614;9.894;2023-10-09T09:11:16;101384.63;;;10.64;95.90
21781;BME280;52576;53.614;9.894;2023-10-09T09:13:26;101381.09;;;10.65;96.18
21781;BME280;52576;53.614;9.894;2023-10-09T09:15:33;101373.22;;;10.65;96.02
21781;BME280;52576;53.614;9.894;2023-10-09T09:17:41;101374.88;;;10.66;95.93
21781;BME280;52576;53.614;9.894;2023-10-09T09:19:44;101368.63;;;10.68;95.98
21781;BME280;52576;53.614;9.894;2023-10-09T09:21:52;101371.91;;;10.72;96.11
21781;BME280;52576;53.614;9.894;2023-10-09T09:24:01;101381.22;;;10.77;96.08
21781;BME280;52576;53.614;9.894;2023-10-09T09:26:05;101380.94;;;10.82;96.16
21781;BME280;52576;53.614;9.894;2023-10-09T09:28:15;101379.84;;;10.86;96.16
21781;BME280;52576;53.614;9.894;2023-10-09T09:30:24;101383.97;;;10.90;95.99
21781;BME280;52576;53.614;9.894;2023-10-09T09:32:33;101381.22;;;10.92;96.01
21781;BME280;52576;53.614;9.894;2023-10-09T09:34:43;101382.91;;;10.93;95.71
21781;BME280;52576;53.614;9.894;2023-10-09T09:36:50;101374.88;;;10.96;95.88
21781;BME280;52576;53.614;9.894;2023-10-09T09:38:57;101372.09;;;10.99;96.03
21781;BME280;52576;53.614;9.894;2023-10-09T09:41:03;101374.44;;;11.03;96.09
21781;BME280;52576;53.614;9.894;2023-10-09T09:43:09;101374.25;;;11.06;96.14
21781;BME280;52576;53.614;9.894;2023-10-09T09:45:24;101363.59;;;11.09;96.20
21781;BME280;52576;53.614;9.894;2023-10-09T09:47:28;101373.91;;;11.12;95.97
21781;BME280;52576;53.614;9.894;2023-10-09T09:49:33;101367.63;;;11.15;95.97
21781;BME280;52576;53.614;9.894;2023-10-09T09:51:40;101363.22;;;11.15;96.02
21781;BME280;52576;53.614;9.894;2023-10-09T09:53:46;101363.22;;;11.15;95.73
21781;BME280;52576;53.614;9.894;2023-10-09T09:55:54;101373.72;;;11.15;95.94
21781;BME280;52576;53.614;9.894;2023-10-09T09:58:01;101364.06;;;11.16;95.63
21781;BME280;52576;53.614;9.894;2023-10-09T10:00:09;101363.97;;;11.17;95.98
21781;BME280;52576;53.614;9.894;2023-10-09T10:02:35;101355.91;;;11.20;95.84
21781;BME280;52576;53.614;9.894;2023-10-09T10:04:41;101355.72;;;11.23;95.99
21781;BME280;52576;53.614;9.894;2023-10-09T10:06:47;101354.69;;;11.26;95.72
21781;BME280;52576;53.614;9.894;2023-10-09T10:08:51;101351.03;;;11.29;95.86
21781;BME280;52576;53.614;9.894;2023-10-09T10:10:54;101353.50;;;11.32;95.73
21781;BME280;52576;53.614;9.894;2023-10-09T10:12:59;101344.41;;;11.37;95.81
21781;BME280;52576;53.614;9.894;2023-10-09T10:15:06;101350.31;;;11.41;95.77
21781;BME280;52576;53.614;9.894;2023-10-09T10:17:16;101343.28;;;11.41;95.54
21781;BME280;52576;53.614;9.894;2023-10-09T10:19:22;101345.81;;;11.43;95.63
21781;BME280;52576;53.614;9.894;2023-10-09T10:21:24;101347.47;;;11.44;95.48
21781;BME280;52576;53.614;9.894;2023-10-09T10:23:40;101346.53;;;11.45;95.49
21781;BME280;52576;53.614;9.894;2023-10-09T10:25:43;101355.16;;;11.47;95.52
21781;BME280;52576;53.614;9.894;2023-10-09T10:28:17;101356.84;;;11.48;95.61
21781;BME280;52576;53.614;9.894;2023-10-09T10:30:31;101357.59;;;11.50;95.49
21781;BME280;52576;53.614;9.894;2023-10-09T10:32:53;101354.88;;;11.51;95.35
21781;BME280;52576;53.614;9.894;2023-10-09T10:34:57;101362.66;;;11.53;95.63
21781;BME280;52576;53.614;9.894;2023-10-09T10:37:08;101352.94;;;11.55;95.76
21781;BME280;52576;53.614;9.894;2023-10-09T10:39:15;101357.06;;;11.59;95.92
21781;BME280;52576;53.614;9.894;2023-10-09T10:41:23;101348.25;;;11.60;95.85
21781;BME280;52576;53.614;9.894;2023-10-09T10:43:26;101351.63;;;11.62;95.92
21781;BME280;52576;53.614;9.894;2023-10-09T10:45:36;101349.75;;;11.64;95.78
21781;BME280;52576;53.614;9.894;2023-10-09T10:47:47;101354.81;;;11.67;95.86
21781;BME280;52576;53.614;9.894;2023-10-09T10:49:51;101359.84;;;11.70;95.79
21781;BME280;52576;53.614;9.894;2023-10-09T10:52:02;101351.88;;;11.72;95.74
21781;BME280;52576;53.614;9.894;2023-10-09T10:54:21;101357.03;;;11.73;95.89
21781;BME280;52576;53.614;9.894;2023-10-09T10:56:45;101356.00;;;11.76;95.64
21781;BME280;52576;53.614;9.894;2023-10-09T10:58:52;101356.88;;;11.76;95.78
21781;BME280;52576;53.614;9.894;2023-10-09T11:01:13;101360.25;;;11.78;95.89
21781;BME280;52576;53.614;9.894;2023-10-09T11:03:18;101355.94;;;11.77;95.48
21781;BME280;52576;53.614;9.894;2023-10-09T11:05:26;101357.63;;;11.78;95.44
21781;BME280;52576;53.614;9.894;2023-10-09T11:07:31;101353.22;;;11.79;95.72
21781;BME280;52576;53.614;9.894;2023-10-09T11:09:42;101350.50;;;11.80;95.74
21781;BME280;52576;53.614;9.894;2023-10-09T11:12:04;101357.44;;;11.81;95.41
21781;BME280;52576;53.614;9.894;2023-10-09T11:14:23;101350.31;;;11.83;95.75
21781;BME280;52576;53.614;9.894;2023-10-09T11:16:26;101345.06;;;11.83;95.40
21781;BME280;52576;53.614;9.894;2023-10-09T11:18:41;101340.63;;;11.84;95.51
21781;BME280;52576;53.614;9.894;2023-10-09T11:20:49;101345.81;;;11.85;95.74
21781;BME280;52576;53.614;9.894;2023-10-09T11:23:17;101342.13;;;11.88;95.42
21781;BME280;52576;53.614;9.894;2023-10-09T11:25:20;101334.16;;;11.89;95.47
21781;BME280;52576;53.614;9.894;2023-10-09T11:27:22;101338.38;;;11.92;95.51
21781;BME280;52576;53.614;9.894;2023-10-09T11:29:28;101342.59;;;11.95;95.64